sensor_id;sensor_type;location;lat;lon;timestamp;pressure;altitude;pressure_sealevel;temperature;humidity
64158;BME280;50449;51.528;5.076;2023-05-19T00:00:34;102538.53;;;19.00;39.79
64158;BME280;50449;51.528;5.076;2023-05-19T00:03:01;102538.19;;;18.96;40.00
64158;BME280;50449;51.528;5.076;2023-05-19T00:05:28;102537.63;;;18.94;39.49
64158;BME280;50449;51.528;5.076;2023-05-19T00:07:57;102541.69;;;18.92;39.68
64158;BME280;50449;51.528;5.076;2023-05-19T00:10:24;102541.13;;;18.90;39.90
64158;BME280;50449;51.528;5.076;2023-05-19T00:12:52;102532.38;;;18.88;40.02
64158;BME280;50449;51.528;5.076;2023-05-19T00:15:17;102530.09;;;18.85;40.11
64158;BME280;50449;51.528;5.076;2023-05-19T00:17:43;102527.88;;;18.81;40.07
64158;BME280;50449;51.528;5.076;2023-05-19T00:20:09;102518.56;;;18.77;40.27
64158;BME280;50449;51.528;5.076;2023-05-19T00:22:36;102522.59;;;18.75;40.01
64158;BME280;50449;51.528;5.076;2023-05-19T00:25:01;102518.44;;;18.72;40.14
64158;BME280;50449;51.528;5.076;2023-05-19T00:27:27;102519.78;;;18.70;39.98
64158;BME280;50449;51.528;5.076;2023-05-19T00:29:52;102518.38;;;18.67;40.27
64158;BME280;50449;51.528;5.076;2023-05-19T00:32:18;102515.06;;;18.65;40.21
64158;BME280;50449;51.528;5.076;2023-05-19T00:34:43;102507.34;;;18.62;40.43
64158;BME280;50449;51.528;5.076;2023-05-19T00:37:08;102504.31;;;18.58;40.46
64158;BME280;50449;51.528;5.076;2023-05-19T00:39:34;102513.84;;;18.56;40.00
64158;BME280;50449;51.528;5.076;2023-05-19T00:41:59;102511.63;;;18.53;40.55
64158;BME280;50449;51.528;5.076;2023-05-19T00:44:25;102511.03;;;18.51;40.38
64158;BME280;50449;51.528;5.076;2023-05-19T00:46:50;102512.38;;;18.48;40.50
64158;BME280;50449;51.528;5.076;2023-05-19T00:49:15;102512.06;;;18.45;40.55
64158;BME280;50449;51.528;5.076;2023-05-19T00:51:41;102513.41;;;18.42;40.83
64158;BME280;50449;51.528;5.076;2023-05-19T00:54:07;102510.09;;;18.40;40.88
64158;BME280;50449;51.528;5.076;2023-05-19T00:56:33;102510.59;;;18.37;40.72
64158;BME280;50449;51.528;5.076;2023-05-19T00:58:58;102507.28;;;18.35;40.90
64158;BME280;50449;51.528;5.076;2023-05-19T01:01:24;102508.84;;;18.31;41.00
64158;BME280;50449;51.528;5.076;2023-05-19T01:03:51;102501.97;;;18.28;40.87
64158;BME280;50449;51.528;5.076;2023-05-19T01:06:16;102512.31;;;18.26;40.96
64158;BME280;50449;51.528;5.076;2023-05-19T01:08:43;102509.28;;;18.23;40.83
64158;BME280;50449;51.528;5.076;2023-05-19T01:11:08;102509.78;;;18.20;41.25
64158;BME280;50449;51.528;5.076;2023-05-19T01:13:35;102513.84;;;18.17;40.87
64158;BME280;50449;51.528;5.076;2023-05-19T01:32:34;102503.09;;;17.93;41.48
64158;BME280;50449;51.528;5.076;2023-05-19T01:35:03;102507.16;;;17.91;41.40
64158;BME280;50449;51.528;5.076;2023-05-19T01:37:29;102501.09;;;17.89;41.43
64158;BME280;50449;51.528;5.076;2023-05-19T01:39:55;102498.88;;;17.86;41.48
64158;BME280;50449;51.528;5.076;2023-05-19T01:42:22;102493.91;;;17.83;41.55
64158;BME280;50449;51.528;5.076;2023-05-19T01:44:47;102502.34;;;17.81;41.67
64158;BME280;50449;51.528;5.076;2023-05-19T01:47:13;102500.91;;;17.79;41.48
64158;BME280;50449;51.528;5.076;2023-05-19T01:49:38;102493.19;;;17.76;41.72
64158;BME280;50449;51.528;5.076;2023-05-19T01:52:04;102499.16;;;17.72;41.34
64158;BME280;50449;51.528;5.076;2023-05-19T01:54:29;102492.06;;;17.71;41.56
64158;BME280;50449;51.528;5.076;2023-05-19T02:02:39;102489.97;;;17.62;41.78
64158;BME280;50449;51.528;5.076;2023-05-19T02:05:35;102490.44;;;17.59;42.10
64158;BME280;50449;51.528;5.076;2023-05-19T02:08:13;102490.13;;;17.55;41.86
64158;BME280;50449;51.528;5.076;2023-05-19T02:10:44;102489.81;;;17.51;41.75
64158;BME280;50449;51.528;5.076;2023-05-19T02:13:15;102491.94;;;17.49;41.88
64158;BME280;50449;51.528;5.076;2023-05-19T02:15:42;102489.72;;;17.46;41.98
64158;BME280;50449;51.528;5.076;2023-05-19T02:18:10;102488.31;;;17.44;41.91
64158;BME280;50449;51.528;5.076;2023-05-19T02:20:37;102486.91;;;17.41;41.82
64158;BME280;50449;51.528;5.076;2023-05-19T02:23:03;102489.28;;;17.38;42.00
64158;BME280;50449;51.528;5.076;2023-05-19T02:25:28;102485.97;;;17.36;42.21
64158;BME280;50449;51.528;5.076;2023-05-19T02:27:54;102480.16;;;17.32;41.86
64158;BME280;50449;51.528;5.076;2023-05-19T02:30:19;102479.56;;;17.30;42.30
64158;BME280;50449;51.528;5.076;2023-05-19T02:32:45;102485.28;;;17.28;42.47
64158;BME280;50449;51.528;5.076;2023-05-19T02:35:11;102481.13;;;17.26;42.32
64158;BME280;50449;51.528;5.076;2023-05-19T02:37:36;102471.53;;;17.23;42.35
64158;BME280;50449;51.528;5.076;2023-05-19T02:40:02;102474.75;;;17.20;42.34
64158;BME280;50449;51.528;5.076;2023-05-19T02:42:28;102474.16;;;17.18;42.53
64158;BME280;50449;51.528;5.076;2023-05-19T02:44:53;102466.25;;;17.17;42.35
64158;BME280;50449;51.528;5.076;2023-05-19T02:47:19;102466.72;;;17.14;42.49
64158;BME280;50449;51.528;5.076;2023-05-19T02:49:44;102471.59;;;17.12;42.44
64158;BME280;50449;51.528;5.076;2023-05-19T02:52:10;102474.84;;;17.08;42.32
64158;BME280;50449;51.528;5.076;2023-05-19T02:54:36;102476.97;;;17.06;42.44
64158;BME280;50449;51.528;5.076;2023-05-19T02:57:01;102466.53;;;17.03;42.36
64158;BME280;50449;51.528;5.076;2023-05-19T02:59:27;102471.41;;;17.01;42.40
64158;BME280;50449;51.528;5.076;2023-05-19T03:02:01;102466.41;;;16.98;42.41
64158;BME280;50449;51.528;5.076;2023-05-19T03:04:27;102469.41;;;16.97;42.47
64158;BME280;50449;51.528;5.076;2023-05-19T03:06:53;102466.31;;;16.93;42.54
64158;BME280;50449;51.528;5.076;2023-05-19T03:09:19;102461.13;;;16.92;42.58
64158;BME280;50449;51.528;5.076;2023-05-19T03:11:45;102467.91;;;16.89;42.42
64158;BME280;50449;51.528;5.076;2023-05-19T03:14:10;102464.56;;;16.87;42.43
64158;BME280;50449;51.528;5.076;2023-05-19T03:16:39;102465.88;;;16.84;42.73
64158;BME280;50449;51.528;5.076;2023-05-19T03:19:08;102466.38;;;16.81;42.46
64158;BME280;50449;51.528;5.076;2023-05-19T03:21:34;102469.34;;;16.80;42.50
64158;BME280;50449;51.528;5.076;2023-05-19T03:24:00;102472.53;;;16.77;42.59
64158;BME280;50449;51.528;5.076;2023-05-19T03:26:25;102464.84;;;16.74;42.68
64158;BME280;50449;51.528;5.076;2023-05-19T03:28:51;102472.44;;;16.72;42.88
64158;BME280;50449;51.528;5.076;2023-05-19T03:31:17;102473.75;;;16.69;42.65
64158;BME280;50449;51.528;5.076;2023-05-19T03:33:42;102469.59;;;16.66;42.69
64158;BME280;50449;51.528;5.076;2023-05-19T03:36:08;102476.09;;;16.65;42.80
64158;BME280;50449;51.528;5.076;2023-05-19T03:38:34;102476.59;;;16.62;42.95
64158;BME280;50449;51.528;5.076;2023-05-19T03:40:59;102477.91;;;16.60;42.75
64158;BME280;50449;51.528;5.076;2023-05-19T03:43:24;102466.41;;;16.58;42.81
64158;BME280;50449;51.528;5.076;2023-05-19T03:45:50;102470.44;;;16.55;42.91
64158;BME280;50449;51.528;5.076;2023-05-19T03:48:15;102470.94;;;16.52;42.71
64158;BME280;50449;51.528;5.076;2023-05-19T03:50:41;102470.31;;;16.50;43.07
64158;BME280;50449;51.528;5.076;2023-05-19T03:53:08;102468.91;;;16.48;42.87
64158;BME280;50449;51.528;5.076;2023-05-19T03:55:34;102469.16;;;16.46;43.28
64158;BME280;50449;51.528;5.076;2023-05-19T03:58:01;102460.63;;;16.42;43.14
64158;BME280;50449;51.528;5.076;2023-05-19T04:00:27;102469.06;;;16.41;43.18
64158;BME280;50449;51.528;5.076;2023-05-19T04:02:52;102470.97;;;16.40;42.91
64158;BME280;50449;51.528;5.076;2023-05-19T04:05:17;102474.16;;;16.37;43.03
64158;BME280;50449;51.528;5.076;2023-05-19T04:07:43;102463.72;;;16.34;43.37
64158;BME280;50449;51.528;5.076;2023-05-19T04:10:11;102470.25;;;16.33;43.13
64158;BME280;50449;51.528;5.076;2023-05-19T04:12:36;102469.88;;;16.30;43.06
64158;BME280;50449;51.528;5.076;2023-05-19T04:15:02;102467.41;;;16.28;43.19
64158;BME280;50449;51.528;5.076;2023-05-19T04:17:27;102472.28;;;16.26;43.53
64158;BME280;50449;51.528;5.076;2023-05-19T04:19:53;102473.59;;;16.23;43.20
64158;BME280;50449;51.528;5.076;2023-05-19T04:22:19;102474.91;;;16.21;43.12
64158;BME280;50449;51.528;5.076;2023-05-19T04:24:45;102479.75;;;16.19;43.59
64158;BME280;50449;51.528;5.076;2023-05-19T04:27:11;102470.16;;;16.16;43.22
64158;BME280;50449;51.528;5.076;2023-05-19T04:29:37;102471.44;;;16.14;43.50
64158;BME280;50449;51.528;5.076;2023-05-19T04:32:04;102473.34;;;16.13;43.44
64158;BME280;50449;51.528;5.076;2023-05-19T04:34:32;102475.47;;;16.11;43.59
64158;BME280;50449;51.528;5.076;2023-05-19T04:36:57;102471.56;;;16.07;43.53
64158;BME280;50449;51.528;5.076;2023-05-19T04:39:23;102471.81;;;16.06;43.59
64158;BME280;50449;51.528;5.076;2023-05-19T04:41:48;102475.84;;;16.03;43.53
64158;BME280;50449;51.528;5.076;2023-05-19T04:44:14;102473.34;;;16.01;43.75
64158;BME280;50449;51.528;5.076;2023-05-19T04:46:42;102478.19;;;15.99;43.84
64158;BME280;50449;51.528;5.076;2023-05-19T04:49:09;102478.47;;;15.98;43.79
64158;BME280;50449;51.528;5.076;2023-05-19T04:51:37;102478.09;;;15.94;43.53
64158;BME280;50449;51.528;5.076;2023-05-19T04:54:05;102479.97;;;15.94;43.68
64158;BME280;50449;51.528;5.076;2023-05-19T04:56:30;102483.19;;;15.91;43.71
64158;BME280;50449;51.528;5.076;2023-05-19T04:58:56;102485.31;;;15.89;43.64
64158;BME280;50449;51.528;5.076;2023-05-19T05:01:21;102486.38;;;15.88;43.92
64158;BME280;50449;51.528;5.076;2023-05-19T05:03:50;102484.72;;;15.87;43.86
64158;BME280;50449;51.528;5.076;2023-05-19T05:06:19;102478.66;;;15.85;44.01
64158;BME280;50449;51.528;5.076;2023-05-19T05:08:45;102482.47;;;15.84;43.69
64158;BME280;50449;51.528;5.076;2023-05-19T05:11:10;102486.25;;;15.83;44.02
64158;BME280;50449;51.528;5.076;2023-05-19T05:13:36;102490.88;;;15.82;43.83
64158;BME280;50449;51.528;5.076;2023-05-19T05:16:02;102495.75;;;15.80;43.77
64158;BME280;50449;51.528;5.076;2023-05-19T05:18:31;102490.28;;;15.80;44.13
64158;BME280;50449;51.528;5.076;2023-05-19T05:20:57;102499.75;;;15.77;43.92
64158;BME280;50449;51.528;5.076;2023-05-19T05:23:23;102495.16;;;15.78;44.08
64158;BME280;50449;51.528;5.076;2023-05-19T05:25:51;102496.19;;;15.77;43.99
64158;BME280;50449;51.528;5.076;2023-05-19T05:28:17;102493.94;;;15.74;43.89
64158;BME280;50449;51.528;5.076;2023-05-19T05:30:43;102497.47;;;15.74;44.23
64158;BME280;50449;51.528;5.076;2023-05-19T05:33:09;102498.78;;;15.72;44.06
64158;BME280;50449;51.528;5.076;2023-05-19T05:35:34;102495.00;;;15.73;44.10
64158;BME280;50449;51.528;5.076;2023-05-19T05:38:01;102494.41;;;15.71;44.07
64158;BME280;50449;51.528;5.076;2023-05-19T05:40:26;102495.47;;;15.70;44.29
64158;BME280;50449;51.528;5.076;2023-05-19T05:42:52;102501.94;;;15.69;44.31
64158;BME280;50449;51.528;5.076;2023-05-19T05:45:21;102500.09;;;15.69;44.22
64158;BME280;50449;51.528;5.076;2023-05-19T05:47:46;102495.47;;;15.70;44.37
64158;BME280;50449;51.528;5.076;2023-05-19T05:50:12;102500.91;;;15.70;44.09
64158;BME280;50449;51.528;5.076;2023-05-19T05:52:39;102509.09;;;15.70;44.21
64158;BME280;50449;51.528;5.076;2023-05-19T05:55:05;102503.63;;;15.70;44.42
64158;BME280;50449;51.528;5.076;2023-05-19T05:57:31;102504.22;;;15.72;44.31
64158;BME280;50449;51.528;5.076;2023-05-19T05:59:59;102504.22;;;15.72;44.42
64158;BME280;50449;51.528;5.076;2023-05-19T06:02:25;102501.50;;;15.72;44.45
64158;BME280;50449;51.528;5.076;2023-05-19T06:04:51;102509.69;;;15.72;44.14
64158;BME280;50449;51.528;5.076;2023-05-19T06:07:18;102508.84;;;15.71;44.60
64158;BME280;50449;51.528;5.076;2023-05-19T06:09:44;102501.50;;;15.72;44.58
64158;BME280;50449;51.528;5.076;2023-05-19T06:12:09;102497.13;;;15.71;44.48
64158;BME280;50449;51.528;5.076;2023-05-19T06:14:35;102512.41;;;15.72;44.70
64158;BME280;50449;51.528;5.076;2023-05-19T06:17:00;102502.38;;;15.72;44.63
64158;BME280;50449;51.528;5.076;2023-05-19T06:19:26;102506.75;;;15.73;44.72
64158;BME280;50449;51.528;5.076;2023-05-19T06:21:51;102509.47;;;15.73;44.57
64158;BME280;50449;51.528;5.076;2023-05-19T06:24:17;102514.91;;;15.73;44.69
64158;BME280;50449;51.528;5.076;2023-05-19T06:26:42;102520.34;;;15.73;44.71
64158;BME280;50449;51.528;5.076;2023-05-19T06:29:07;102516.56;;;15.74;44.71
64158;BME280;50449;51.528;5.076;2023-05-19T06:31:33;102519.06;;;15.76;44.79
64158;BME280;50449;51.528;5.076;2023-05-19T06:33:58;102517.97;;;15.77;44.81
64158;BME280;50449;51.528;5.076;2023-05-19T06:36:24;102518.25;;;15.75;44.61
64158;BME280;50449;51.528;5.076;2023-05-19T06:38:49;102521.78;;;15.76;44.62
64158;BME280;50449;51.528;5.076;2023-05-19T06:41:15;102515.72;;;15.74;44.92
64158;BME280;50449;51.528;5.076;2023-05-19T06:43:41;102515.72;;;15.74;45.11
64158;BME280;50449;51.528;5.076;2023-05-19T06:46:06;102504.00;;;15.73;44.86
64158;BME280;50449;51.528;5.076;2023-05-19T06:48:32;102515.72;;;15.74;45.10
64158;BME280;50449;51.528;5.076;2023-05-19T06:50:57;102503.78;;;15.75;45.34
64158;BME280;50449;51.528;5.076;2023-05-19T06:53:23;102510.88;;;15.76;45.09
64158;BME280;50449;51.528;5.076;2023-05-19T06:55:48;102503.31;;;15.78;45.28
64158;BME280;50449;51.528;5.076;2023-05-19T06:58:16;102506.63;;;15.80;45.15
64158;BME280;50449;51.528;5.076;2023-05-19T07:00:42;102512.09;;;15.80;45.51
64158;BME280;50449;51.528;5.076;2023-05-19T07:03:08;102509.13;;;15.82;45.26
64158;BME280;50449;51.528;5.076;2023-05-19T07:05:33;102511.63;;;15.83;45.40
64158;BME280;50449;51.528;5.076;2023-05-19T07:07:59;102508.63;;;15.85;45.28
64158;BME280;50449;51.528;5.076;2023-05-19T07:10:24;102505.47;;;15.88;45.61
64158;BME280;50449;51.528;5.076;2023-05-19T07:12:50;102508.53;;;15.91;45.61
64158;BME280;50449;51.528;5.076;2023-05-19T07:15:15;102501.78;;;15.94;45.75
64158;BME280;50449;51.528;5.076;2023-05-19T07:17:40;102505.72;;;15.98;45.47
64158;BME280;50449;51.528;5.076;2023-05-19T07:20:06;102511.50;;;16.01;45.76
64158;BME280;50449;51.528;5.076;2023-05-19T07:22:34;102509.38;;;16.04;45.64
64158;BME280;50449;51.528;5.076;2023-05-19T07:25:00;102501.56;;;16.07;45.68
64158;BME280;50449;51.528;5.076;2023-05-19T07:27:25;102503.81;;;16.10;46.05
64158;BME280;50449;51.528;5.076;2023-05-19T07:29:50;102503.34;;;16.13;45.85
64158;BME280;50449;51.528;5.076;2023-05-19T07:32:16;102495.50;;;16.17;45.95
64158;BME280;50449;51.528;5.076;2023-05-19T07:34:41;102498.59;;;16.20;45.81
64158;BME280;50449;51.528;5.076;2023-05-19T07:37:07;102498.94;;;16.24;46.27
64158;BME280;50449;51.528;5.076;2023-05-19T07:39:33;102493.59;;;16.29;46.17
64158;BME280;50449;51.528;5.076;2023-05-19T07:41:59;102489.34;;;16.33;46.10
64158;BME280;50449;51.528;5.076;2023-05-19T07:44:25;102491.38;;;16.38;46.31
64158;BME280;50449;51.528;5.076;2023-05-19T07:46:52;102491.47;;;16.43;46.45
64158;BME280;50449;51.528;5.076;2023-05-19T07:49:17;102498.91;;;16.48;46.53
64158;BME280;50449;51.528;5.076;2023-05-19T07:51:43;102491.09;;;16.51;46.73
64158;BME280;50449;51.528;5.076;2023-05-19T07:54:08;102484.94;;;16.56;46.70
64158;BME280;50449;51.528;5.076;2023-05-19T07:56:33;102489.63;;;16.60;46.72
64158;BME280;50449;51.528;5.076;2023-05-19T07:58:59;102484.28;;;16.65;46.59
64158;BME280;50449;51.528;5.076;2023-05-19T08:01:24;102492.34;;;16.72;46.11
64158;BME280;50449;51.528;5.076;2023-05-19T08:03:50;102485.13;;;16.78;46.48
64158;BME280;50449;51.528;5.076;2023-05-19T08:06:15;102490.44;;;16.84;46.71
64158;BME280;50449;51.528;5.076;2023-05-19T08:08:41;102482.13;;;16.91;46.71
64158;BME280;50449;51.528;5.076;2023-05-19T08:11:06;102473.78;;;16.98;46.41
64158;BME280;50449;51.528;5.076;2023-05-19T08:13:32;102474.47;;;17.05;46.72
64158;BME280;50449;51.528;5.076;2023-05-19T08:15:58;102476.25;;;17.11;46.64
64158;BME280;50449;51.528;5.076;2023-05-19T08:18:27;102477.75;;;17.19;46.36
64158;BME280;50449;51.528;5.076;2023-05-19T08:20:52;102478.41;;;17.26;46.47
64158;BME280;50449;51.528;5.076;2023-05-19T08:23:18;102471.72;;;17.34;46.12
64158;BME280;50449;51.528;5.076;2023-05-19T08:25:44;102472.16;;;17.42;46.37
64158;BME280;50449;51.528;5.076;2023-05-19T08:28:09;102465.69;;;17.48;46.54
64158;BME280;50449;51.528;5.076;2023-05-19T08:30:35;102468.84;;;17.57;46.11
64158;BME280;50449;51.528;5.076;2023-05-19T08:33:00;102458.84;;;17.63;46.55
64158;BME280;50449;51.528;5.076;2023-05-19T08:35:26;102466.38;;;17.72;46.30
64158;BME280;50449;51.528;5.076;2023-05-19T08:37:52;102458.59;;;17.81;46.35
64158;BME280;50449;51.528;5.076;2023-05-19T08:40:19;102460.09;;;17.89;45.86
64158;BME280;50449;51.528;5.076;2023-05-19T08:42:44;102453.38;;;17.97;46.56
64158;BME280;50449;51.528;5.076;2023-05-19T08:45:11;102455.13;;;18.03;46.46
64158;BME280;50449;51.528;5.076;2023-05-19T08:47:36;102451.69;;;18.12;46.12
64158;BME280;50449;51.528;5.076;2023-05-19T08:50:06;102445.56;;;18.22;45.82
64158;BME280;50449;51.528;5.076;2023-05-19T08:52:54;102449.25;;;18.33;46.04
64158;BME280;50449;51.528;5.076;2023-05-19T08:55:30;102443.09;;;18.43;46.01
64158;BME280;50449;51.528;5.076;2023-05-19T08:57:59;102445.13;;;18.52;46.67
64158;BME280;50449;51.528;5.076;2023-05-19T09:00:25;102445.50;;;18.61;46.39
64158;BME280;50449;51.528;5.076;2023-05-19T09:02:52;102441.22;;;18.70;45.59
64158;BME280;50449;51.528;5.076;2023-05-19T09:05:18;102446.03;;;18.80;45.93
64158;BME280;50449;51.528;5.076;2023-05-19T09:07:44;102443.41;;;18.90;45.69
64158;BME280;50449;51.528;5.076;2023-05-19T09:10:11;102443.50;;;19.00;44.40
64158;BME280;50449;51.528;5.076;2023-05-19T09:12:43;102443.59;;;19.11;44.04
64158;BME280;50449;51.528;5.076;2023-05-19T09:15:15;102437.91;;;19.17;44.14
64158;BME280;50449;51.528;5.076;2023-05-19T09:17:41;102438.84;;;19.28;44.28
64158;BME280;50449;51.528;5.076;2023-05-19T09:20:08;102438.66;;;19.40;43.69
64158;BME280;50449;51.528;5.076;2023-05-19T09:22:44;102432.72;;;19.48;43.69
64158;BME280;50449;51.528;5.076;2023-05-19T09:25:21;102430.06;;;19.58;43.92
64158;BME280;50449;51.528;5.076;2023-05-19T09:27:46;102426.00;;;19.66;43.79
64158;BME280;50449;51.528;5.076;2023-05-19T09:30:16;102425.53;;;19.74;43.76
64158;BME280;50449;51.528;5.076;2023-05-19T09:32:43;102418.19;;;19.85;44.30
64158;BME280;50449;51.528;5.076;2023-05-19T09:35:10;102430.34;;;19.94;43.76
64158;BME280;50449;51.528;5.076;2023-05-19T09:37:38;102420.53;;;20.03;44.22
64158;BME280;50449;51.528;5.076;2023-05-19T09:40:06;102420.84;;;20.12;44.76
64158;BME280;50449;51.528;5.076;2023-05-19T09:42:36;102426.63;;;20.21;44.72
64158;BME280;50449;51.528;5.076;2023-05-19T09:45:02;102426.13;;;20.29;44.47
64158;BME280;50449;51.528;5.076;2023-05-19T09:47:32;102422.06;;;20.37;44.19
64158;BME280;50449;51.528;5.076;2023-05-19T09:49:58;102425.09;;;20.45;43.49
64158;BME280;50449;51.528;5.076;2023-05-19T09:52:23;102426.28;;;20.55;43.68
64158;BME280;50449;51.528;5.076;2023-05-19T09:54:49;102427.66;;;20.62;44.39
64158;BME280;50449;51.528;5.076;2023-05-19T09:57:16;102421.66;;;20.70;42.56
64158;BME280;50449;51.528;5.076;2023-05-19T09:59:42;102423.03;;;20.78;43.18
64158;BME280;50449;51.528;5.076;2023-05-19T10:02:14;102415.94;;;20.87;43.58
64158;BME280;50449;51.528;5.076;2023-05-19T10:04:41;102413.47;;;20.96;43.34
64158;BME280;50449;51.528;5.076;2023-05-19T10:07:08;102422.81;;;21.05;42.17
64158;BME280;50449;51.528;5.076;2023-05-19T10:09:35;102420.63;;;21.12;43.17
64158;BME280;50449;51.528;5.076;2023-05-19T10:12:01;102424.47;;;21.22;42.64
64158;BME280;50449;51.528;5.076;2023-05-19T10:14:28;102418.47;;;21.30;42.45
64158;BME280;50449;51.528;5.076;2023-05-19T10:16:57;102416.00;;;21.38;42.45
64158;BME280;50449;51.528;5.076;2023-05-19T10:19:26;102416.56;;;21.46;42.46
64158;BME280;50449;51.528;5.076;2023-05-19T10:21:52;102414.06;;;21.54;40.43
64158;BME280;50449;51.528;5.076;2023-05-19T10:24:18;102413.78;;;21.61;40.25
64158;BME280;50449;51.528;5.076;2023-05-19T10:26:59;102408.03;;;21.68;41.93
64158;BME280;50449;51.528;5.076;2023-05-19T10:29:27;102406.63;;;21.75;42.63
64158;BME280;50449;51.528;5.076;2023-05-19T10:31:54;102402.75;;;21.81;43.65
64158;BME280;50449;51.528;5.076;2023-05-19T10:37:30;102400.81;;;21.97;43.78
64158;BME280;50449;51.528;5.076;2023-05-19T10:39:59;102398.56;;;22.04;43.08
64158;BME280;50449;51.528;5.076;2023-05-19T10:42:34;102403.22;;;22.14;42.81
64158;BME280;50449;51.528;5.076;2023-05-19T10:47:32;102403.19;;;22.30;40.85
64158;BME280;50449;51.528;5.076;2023-05-19T10:50:03;102390.25;;;22.35;41.01
64158;BME280;50449;51.528;5.076;2023-05-19T10:52:35;102389.91;;;22.42;41.96
64158;BME280;50449;51.528;5.076;2023-05-19T10:55:01;102390.44;;;22.49;42.27
64158;BME280;50449;51.528;5.076;2023-05-19T10:57:27;102389.81;;;22.57;41.05
64158;BME280;50449;51.528;5.076;2023-05-19T10:59:55;102390.66;;;22.63;41.55
64158;BME280;50449;51.528;5.076;2023-05-19T11:02:42;102385.63;;;22.70;40.71
64158;BME280;50449;51.528;5.076;2023-05-19T11:05:12;102385.59;;;22.75;40.92
64158;BME280;50449;51.528;5.076;2023-05-19T11:07:57;102380.59;;;22.82;41.81
64158;BME280;50449;51.528;5.076;2023-05-19T11:10:28;102380.56;;;22.87;42.16
64158;BME280;50449;51.528;5.076;2023-05-19T11:12:55;102373.59;;;22.95;41.70
64158;BME280;50449;51.528;5.076;2023-05-19T11:15:24;102367.28;;;23.00;41.99
64158;BME280;50449;51.528;5.076;2023-05-19T11:17:51;102375.22;;;23.06;40.76
64158;BME280;50449;51.528;5.076;2023-05-19T11:20:25;102371.31;;;23.13;41.30
64158;BME280;50449;51.528;5.076;2023-05-19T11:25:42;102369.00;;;23.25;42.43
64158;BME280;50449;51.528;5.076;2023-05-19T11:28:11;102368.66;;;23.31;41.50
64158;BME280;50449;51.528;5.076;2023-05-19T11:30:40;102365.88;;;23.37;40.41
64158;BME280;50449;51.528;5.076;2023-05-19T11:33:06;102375.72;;;23.43;43.45
64158;BME280;50449;51.528;5.076;2023-05-19T11:35:32;102361.06;;;23.47;41.67
64158;BME280;50449;51.528;5.076;2023-05-19T11:37:57;102356.03;;;23.54;41.81
64158;BME280;50449;51.528;5.076;2023-05-19T11:40:24;102364.78;;;23.62;41.36
64158;BME280;50449;51.528;5.076;2023-05-19T11:42:49;102342.34;;;23.68;41.42
64158;BME280;50449;51.528;5.076;2023-05-19T11:45:15;102349.19;;;23.76;40.20
64158;BME280;50449;51.528;5.076;2023-05-19T11:47:41;102357.13;;;23.83;39.76
64158;BME280;50449;51.528;5.076;2023-05-19T11:50:09;102350.16;;;23.90;39.98
64158;BME280;50449;51.528;5.076;2023-05-19T11:52:35;102345.69;;;23.94;40.42
64158;BME280;50449;51.528;5.076;2023-05-19T11:55:00;102349.75;;;24.02;41.32
64158;BME280;50449;51.528;5.076;2023-05-19T11:57:26;102346.91;;;24.07;41.25
64158;BME280;50449;51.528;5.076;2023-05-19T11:59:51;102328.88;;;24.15;39.84
64158;BME280;50449;51.528;5.076;2023-05-19T12:02:22;102345.06;;;24.22;40.21
64158;BME280;50449;51.528;5.076;2023-05-19T12:04:52;102341.41;;;24.26;37.32
64158;BME280;50449;51.528;5.076;2023-05-19T12:07:22;102337.47;;;24.32;36.37
64158;BME280;50449;51.528;5.076;2023-05-19T12:09:51;102342.13;;;24.37;37.80
64158;BME280;50449;51.528;5.076;2023-05-19T12:12:19;102330.69;;;24.44;37.43
64158;BME280;50449;51.528;5.076;2023-05-19T12:14:46;102342.50;;;24.49;37.67
64158;BME280;50449;51.528;5.076;2023-05-19T12:17:14;102328.31;;;24.56;37.74
64158;BME280;50449;51.528;5.076;2023-05-19T12:19:42;102334.59;;;24.61;35.86
64158;BME280;50449;51.528;5.076;2023-05-19T12:22:09;102336.97;;;24.68;34.43
64158;BME280;50449;51.528;5.076;2023-05-19T12:24:36;102337.19;;;24.72;33.38
64158;BME280;50449;51.528;5.076;2023-05-19T12:27:22;102324.13;;;24.77;34.59
64158;BME280;50449;51.528;5.076;2023-05-19T12:29:49;102331.22;;;24.83;34.15
64158;BME280;50449;51.528;5.076;2023-05-19T12:32:18;102334.69;;;24.89;34.96
64158;BME280;50449;51.528;5.076;2023-05-19T12:34:46;102327.16;;;24.95;35.99
64158;BME280;50449;51.528;5.076;2023-05-19T12:37:12;102314.38;;;24.99;36.83
64158;BME280;50449;51.528;5.076;2023-05-19T12:39:38;102319.00;;;25.03;37.18
64158;BME280;50449;51.528;5.076;2023-05-19T12:42:07;102319.44;;;25.11;36.21
64158;BME280;50449;51.528;5.076;2023-05-19T12:44:37;102315.47;;;25.17;35.07
64158;BME280;50449;51.528;5.076;2023-05-19T12:47:06;102309.84;;;25.22;34.89
64158;BME280;50449;51.528;5.076;2023-05-19T12:49:32;102310.59;;;25.28;35.33
64158;BME280;50449;51.528;5.076;2023-05-19T12:52:00;102311.59;;;25.32;36.33
64158;BME280;50449;51.528;5.076;2023-05-19T12:54:28;102312.31;;;25.37;35.84
64158;BME280;50449;51.528;5.076;2023-05-19T12:56:57;102300.88;;;25.44;34.89
64158;BME280;50449;51.528;5.076;2023-05-19T12:59:23;102300.78;;;25.49;34.37
64158;BME280;50449;51.528;5.076;2023-05-19T13:01:56;102303.94;;;25.56;35.88
64158;BME280;50449;51.528;5.076;2023-05-19T13:04:23;102290.31;;;25.60;36.13
64158;BME280;50449;51.528;5.076;2023-05-19T13:06:48;102290.84;;;25.62;35.78
64158;BME280;50449;51.528;5.076;2023-05-19T13:09:14;102301.28;;;25.65;35.28
64158;BME280;50449;51.528;5.076;2023-05-19T13:11:43;102294.00;;;25.69;35.75
64158;BME280;50449;51.528;5.076;2023-05-19T13:14:09;102298.13;;;25.72;35.03
64158;BME280;50449;51.528;5.076;2023-05-19T13:16:34;102304.34;;;25.77;33.80
64158;BME280;50449;51.528;5.076;2023-05-19T13:19:00;102301.47;;;25.82;33.86